Time;durP1;ratioP1;P1;durP2;ratioP2;P2;SDS_P1;SDS_P2;PMS_P1;PMS_P2;Temp;Humidity;BMP_temperature;BMP_pressure;BME280_temperature;BME280_humidity;BME280_pressure;Samples;Min_cycle;Max_cycle;Signal;HPM_P1;HPM_P2
2022/03/14 00:01:06;;;;;;;15.27;6.90;;;-1.20;99.90;;;;;;4944319;29;20407;-87
2022/03/14 00:03:58;;;;;;;12.02;6.10;;;-1.20;99.90;;;;;;4969495;28;20395;-87
2022/03/14 00:06:23;;;;;;;11.07;5.70;;;-1.30;99.90;;;;;;4955269;28;20400;-87
2022/03/14 00:08:54;;;;;;;12.77;6.40;;;-1.30;99.90;;;;;;4954930;28;20404;-88
2022/03/14 00:11:23;;;;;;;11.65;5.63;;;-1.40;99.90;;;;;;4953177;28;20397;-87
2022/03/14 00:13:50;;;;;;;12.52;5.97;;;-1.40;99.90;;;;;;4953626;28;20977;-87
2022/03/14 00:16:28;;;;;;;11.13;5.50;;;-1.30;99.90;;;;;;4953371;29;20479;-87
2022/03/14 00:18:58;;;;;;;10.88;5.63;;;-1.40;99.90;;;;;;4969599;28;20397;-87
2022/03/14 00:21:26;;;;;;;11.93;5.70;;;-1.50;99.90;;;;;;4948610;29;20413;-87
2022/03/14 00:23:56;;;;;;;11.05;4.85;;;-1.50;99.90;;;;;;4934468;29;20492;-87
2022/03/14 00:26:24;;;;;;;11.07;5.28;;;-1.40;99.90;;;;;;4934351;29;20398;-88
2022/03/14 00:28:52;;;;;;;10.98;5.22;;;-1.50;99.90;;;;;;4934701;29;20465;-87
2022/03/14 00:31:20;;;;;;;10.97;5.13;;;-1.50;99.90;;;;;;4935401;29;20417;-87
2022/03/14 00:33:48;;;;;;;9.68;5.25;;;-1.60;99.90;;;;;;4934352;29;20445;-87
2022/03/14 00:36:16;;;;;;;9.82;4.82;;;-1.60;99.90;;;;;;4950231;29;20629;-87
2022/03/14 00:38:44;;;;;;;10.07;5.07;;;-1.70;99.90;;;;;;4934336;29;20952;-87
2022/03/14 00:41:12;;;;;;;9.93;4.93;;;-1.70;99.90;;;;;;4933711;29;20402;-85
2022/03/14 00:43:40;;;;;;;10.05;5.00;;;-1.70;99.90;;;;;;4934200;29;20893;-87
2022/03/14 00:46:08;;;;;;;9.32;4.30;;;-1.70;99.90;;;;;;4934024;29;20406;-87
2022/03/14 00:48:36;;;;;;;11.15;5.15;;;-1.60;99.90;;;;;;4934074;29;20826;-87
2022/03/14 00:51:04;;;;;;;9.23;4.25;;;-1.70;99.90;;;;;;4950112;29;20414;-87
2022/03/14 00:53:32;;;;;;;8.50;4.75;;;-1.70;99.90;;;;;;4933829;29;20409;-87
2022/03/14 00:56:00;;;;;;;8.77;4.60;;;-1.80;99.90;;;;;;4949834;29;20414;-87
2022/03/14 00:58:29;;;;;;;8.90;4.78;;;-1.80;99.90;;;;;;4914738;29;20396;-86
2022/03/14 01:00:58;;;;;;;9.55;4.18;;;-1.80;99.90;;;;;;4930652;29;20452;-88
2022/03/14 01:03:26;;;;;;;10.40;4.05;;;-1.80;99.90;;;;;;4930291;29;20416;-88
2022/03/14 01:05:54;;;;;;;9.15;4.38;;;-1.80;99.90;;;;;;4930291;29;20404;-87
2022/03/14 01:08:21;;;;;;;9.70;4.70;;;-1.90;99.90;;;;;;4930537;29;20416;-87
2022/03/14 01:10:49;;;;;;;8.55;4.05;;;-1.80;99.90;;;;;;4930767;29;20474;-88
2022/03/14 01:13:17;;;;;;;8.48;4.25;;;-1.80;99.90;;;;;;4930461;29;20415;-87
2022/03/14 01:15:44;;;;;;;9.75;4.22;;;-1.80;99.90;;;;;;4930734;29;20435;-88
2022/03/14 01:18:13;;;;;;;7.80;4.15;;;-1.80;99.90;;;;;;4930436;29;20897;-87
2022/03/14 01:20:41;;;;;;;8.80;4.20;;;-1.90;99.90;;;;;;4914443;29;20430;-87
2022/03/14 01:23:09;;;;;;;9.45;4.55;;;-1.90;99.90;;;;;;4932848;29;20506;-88
2022/03/14 01:25:39;;;;;;;9.35;4.50;;;-1.90;99.90;;;;;;4934652;29;20914;-87
2022/03/14 01:28:07;;;;;;;9.20;4.30;;;-1.90;99.90;;;;;;4934490;29;20399;-88
2022/03/14 01:30:35;;;;;;;8.50;4.33;;;-1.90;99.90;;;;;;4934211;29;20941;-88
2022/03/14 01:33:03;;;;;;;9.10;4.32;;;-2.00;99.90;;;;;;4934132;29;20399;-86
2022/03/14 01:35:31;;;;;;;9.13;4.72;;;-1.80;99.90;;;;;;4934021;29;20494;-87
2022/03/14 01:37:58;;;;;;;10.18;4.85;;;-1.80;99.90;;;;;;4934205;29;20463;-86
2022/03/14 01:40:27;;;;;;;10.40;5.10;;;-1.70;99.90;;;;;;4919167;29;20398;-87
2022/03/14 01:42:55;;;;;;;8.45;4.53;;;-1.70;99.90;;;;;;4933827;29;20407;-87
2022/03/14 01:45:23;;;;;;;10.93;4.57;;;-1.70;99.90;;;;;;4934036;29;20435;-86
2022/03/14 01:47:51;;;;;;;8.55;4.20;;;-1.70;99.90;;;;;;4933881;29;20408;-87
2022/03/14 01:50:19;;;;;;;8.53;4.13;;;-1.70;99.90;;;;;;4934027;29;20901;-87
2022/03/14 01:52:47;;;;;;;9.73;4.43;;;-1.60;99.90;;;;;;4934171;29;20411;-88
2022/03/14 01:55:15;;;;;;;10.50;4.30;;;-1.70;99.90;;;;;;4933437;29;20412;-87
2022/03/14 01:57:43;;;;;;;7.90;3.97;;;-1.70;99.90;;;;;;4917479;29;20497;-87
2022/03/14 02:00:12;;;;;;;8.02;4.13;;;-1.70;99.90;;;;;;4933781;29;20414;-87
2022/03/14 02:02:43;;;;;;;9.10;4.40;;;-1.70;99.90;;;;;;4933275;29;20490;-87
2022/03/14 02:05:12;;;;;;;9.40;4.38;;;-1.70;99.90;;;;;;4933710;29;20474;-87
2022/03/14 02:07:39;;;;;;;8.02;4.20;;;-1.70;99.90;;;;;;4933458;29;20654;-87
2022/03/14 02:10:08;;;;;;;8.60;4.15;;;-1.70;99.90;;;;;;4917578;29;20898;-87
2022/03/14 02:12:35;;;;;;;9.05;4.28;;;-1.80;99.90;;;;;;4933062;29;21026;-87
2022/03/14 02:15:03;;;;;;;8.50;4.40;;;-1.80;99.90;;;;;;4933194;29;20411;-88
2022/03/14 02:17:31;;;;;;;8.97;4.63;;;-1.90;99.90;;;;;;4933907;29;20415;-88
2022/03/14 02:19:59;;;;;;;8.05;4.45;;;-1.90;99.90;;;;;;4933403;29;20407;-87
2022/03/14 02:22:27;;;;;;;10.57;4.60;;;-1.90;99.90;;;;;;4933203;29;20411;-88
2022/03/14 02:24:55;;;;;;;10.65;5.03;;;-1.90;99.90;;;;;;4933282;29;20411;-88
2022/03/14 02:27:22;;;;;;;10.00;4.77;;;-1.80;99.90;;;;;;4932873;29;20400;-87
2022/03/14 02:29:50;;;;;;;10.60;5.47;;;-1.80;99.90;;;;;;4933688;29;20407;-88
2022/03/14 02:32:18;;;;;;;10.93;5.40;;;-1.80;99.90;;;;;;4933434;29;20486;-88
2022/03/14 02:34:45;;;;;;;11.32;5.47;;;-1.80;99.90;;;;;;4932326;29;20422;-88
2022/03/14 02:37:13;;;;;;;9.07;4.67;;;-1.90;99.90;;;;;;4917156;29;20431;-87
2022/03/14 02:39:40;;;;;;;10.10;5.13;;;-1.90;99.90;;;;;;4933028;29;20471;-88
2022/03/14 02:42:08;;;;;;;11.90;5.50;;;-1.90;99.90;;;;;;4917363;29;20403;-88
2022/03/14 02:44:41;;;;;;;11.65;5.28;;;-2.00;99.90;;;;;;4933165;29;20467;-88
2022/03/14 02:47:11;;;;;;;10.25;5.50;;;-2.00;99.90;;;;;;4933085;29;20411;-88
2022/03/14 02:49:38;;;;;;;11.77;5.78;;;-2.00;99.90;;;;;;4932841;29;20403;-88
2022/03/14 02:52:06;;;;;;;10.32;5.60;;;-2.00;99.90;;;;;;4932764;29;20436;-87
2022/03/14 02:54:34;;;;;;;11.63;5.65;;;-2.00;99.90;;;;;;4932433;29;20411;-86
2022/03/14 02:57:02;;;;;;;11.27;5.70;;;-2.00;99.90;;;;;;4929248;29;20409;-87
2022/03/14 02:59:30;;;;;;;13.45;6.13;;;-2.00;99.90;;;;;;4936000;29;20425;-87
2022/03/14 03:01:57;;;;;;;12.30;6.55;;;-2.00;99.90;;;;;;4920185;29;20410;-88
2022/03/14 03:04:25;;;;;;;13.57;6.63;;;-2.10;99.90;;;;;;4920037;29;20394;-86
2022/03/14 03:06:56;;;;;;;11.82;5.85;;;-2.00;99.90;;;;;;4935774;29;20421;-88
2022/03/14 03:09:26;;;;;;;10.83;5.70;;;-2.10;99.90;;;;;;4935472;29;20409;-87
2022/03/14 03:11:54;;;;;;;11.18;5.75;;;-2.10;99.90;;;;;;4919873;29;20406;-87
2022/03/14 03:14:22;;;;;;;12.60;6.10;;;-2.10;99.90;;;;;;4935626;29;20409;-87
2022/03/14 03:16:49;;;;;;;11.77;6.00;;;-2.10;99.90;;;;;;4935441;29;20422;-87
2022/03/14 03:19:17;;;;;;;12.23;6.13;;;-2.10;99.90;;;;;;4935600;29;20398;-88
2022/03/14 03:21:45;;;;;;;11.40;6.22;;;-2.20;99.90;;;;;;4935542;29;20948;-87
2022/03/14 03:24:12;;;;;;;12.43;6.25;;;-2.20;99.90;;;;;;4904049;29;20900;-87
2022/03/14 03:26:40;;;;;;;11.40;6.00;;;-2.20;99.90;;;;;;4935350;29;20766;-88
2022/03/14 03:29:09;;;;;;;13.95;6.72;;;-2.20;99.90;;;;;;4935366;29;20406;-87
2022/03/14 03:31:38;;;;;;;13.23;7.22;;;-2.20;99.90;;;;;;4935361;29;20918;-88
2022/03/14 03:34:07;;;;;;;12.15;6.60;;;-2.20;99.90;;;;;;4919442;29;20433;-88
2022/03/14 03:36:34;;;;;;;13.90;7.28;;;-2.20;99.90;;;;;;4935077;29;20461;-87
2022/03/14 03:39:02;;;;;;;13.45;6.90;;;-2.20;99.90;;;;;;4935358;29;20390;-87
2022/03/14 03:41:29;;;;;;;13.05;6.80;;;-2.20;99.90;;;;;;4935476;29;20888;-87
2022/03/14 03:43:58;;;;;;;13.55;7.30;;;-2.30;99.90;;;;;;4934848;29;20398;-87
2022/03/14 03:46:27;;;;;;;14.40;7.40;;;-2.20;99.90;;;;;;4933928;29;20398;-87
2022/03/14 03:48:54;;;;;;;13.68;7.88;;;-2.20;99.90;;;;;;4943973;28;20475;-86
2022/03/14 03:51:22;;;;;;;13.90;7.82;;;-2.30;99.90;;;;;;4934984;29;20402;-86
2022/03/14 03:53:50;;;;;;;14.40;7.80;;;-2.30;99.90;;;;;;4935909;29;20453;-87
2022/03/14 03:56:17;;;;;;;15.48;7.90;;;-2.30;99.90;;;;;;4931422;29;20416;-88
2022/03/14 03:58:45;;;;;;;14.27;7.87;;;-2.30;99.90;;;;;;4900353;29;20404;-87
2022/03/14 04:01:21;;;;;;;14.98;8.10;;;-2.30;99.90;;;;;;4940959;29;20414;-87
2022/03/14 04:03:54;;;;;;;16.13;8.23;;;-2.30;99.90;;;;;;4950701;29;20410;-87
2022/03/14 04:06:30;;;;;;;14.98;8.63;;;-2.40;99.90;;;;;;4950610;29;20410;-87
2022/03/14 04:09:00;;;;;;;15.23;8.38;;;-2.40;99.90;;;;;;4950735;29;20409;-86
2022/03/14 04:11:28;;;;;;;14.98;8.50;;;-2.40;99.90;;;;;;4950246;29;20649;-87
2022/03/14 04:13:58;;;;;;;14.90;7.97;;;-2.40;99.90;;;;;;4950568;29;20410;-87
2022/03/14 04:16:27;;;;;;;14.30;8.10;;;-2.40;99.90;;;;;;4950123;29;20888;-86
2022/03/14 04:18:57;;;;;;;17.80;9.15;;;-2.40;99.90;;;;;;4934361;29;20761;-86
2022/03/14 04:21:25;;;;;;;13.77;7.95;;;-2.50;99.90;;;;;;4950440;29;20443;-86
2022/03/14 04:23:53;;;;;;;15.35;8.23;;;-2.60;99.90;;;;;;4950193;29;20416;-86
2022/03/14 04:26:20;;;;;;;16.83;8.87;;;-2.70;99.90;;;;;;4950070;29;20731;-86
2022/03/14 04:28:48;;;;;;;15.73;8.60;;;-2.80;99.90;;;;;;4950079;29;20409;-86
2022/03/14 04:31:15;;;;;;;14.87;7.87;;;-2.80;99.90;;;;;;4950261;29;20818;-85
2022/03/14 04:33:43;;;;;;;16.27;8.13;;;-2.80;99.90;;;;;;4950131;29;20397;-86
2022/03/14 04:36:13;;;;;;;16.00;8.70;;;-2.70;99.90;;;;;;4950062;29;20417;-86
2022/03/14 04:38:41;;;;;;;17.07;8.40;;;-2.70;99.90;;;;;;4934295;29;20408;-86
2022/03/14 04:41:09;;;;;;;13.07;7.30;;;-2.70;99.90;;;;;;4950230;29;20406;-89
2022/03/14 04:43:36;;;;;;;15.82;7.65;;;-2.70;99.90;;;;;;4949801;29;20785;-88
2022/03/14 04:46:04;;;;;;;14.07;7.43;;;-2.70;99.90;;;;;;4949891;29;20402;-86
2022/03/14 04:48:33;;;;;;;13.57;7.35;;;-2.80;99.90;;;;;;4933896;29;20508;-85
2022/03/14 04:51:00;;;;;;;13.35;6.70;;;-2.80;99.90;;;;;;4950192;29;20911;-86
2022/03/14 04:53:28;;;;;;;12.43;6.68;;;-2.80;99.90;;;;;;4949734;29;20915;-86
2022/03/14 04:55:56;;;;;;;10.68;5.93;;;-2.90;99.90;;;;;;4936602;29;20706;-88
2022/03/14 04:58:23;;;;;;;11.43;6.20;;;-2.80;99.90;;;;;;4953062;29;20404;-88
2022/03/14 05:00:51;;;;;;;11.38;5.57;;;-2.80;99.90;;;;;;4952934;29;20395;-88
2022/03/14 05:03:19;;;;;;;12.20;5.75;;;-2.80;99.90;;;;;;4933534;29;20410;-87
2022/03/14 05:05:47;;;;;;;8.73;5.22;;;-2.80;99.90;;;;;;4918611;29;20962;-87
2022/03/14 05:08:14;;;;;;;9.60;4.60;;;-2.80;99.90;;;;;;4917847;29;20442;-87
2022/03/14 05:10:42;;;;;;;10.75;4.78;;;-2.70;99.90;;;;;;4917940;29;20626;-88
2022/03/14 05:13:10;;;;;;;10.63;4.38;;;-2.50;99.90;;;;;;4918183;29;20406;-88
2022/03/14 05:15:38;;;;;;;8.75;4.07;;;-2.50;99.90;;;;;;4917874;29;20417;-87
2022/03/14 05:18:05;;;;;;;8.82;4.32;;;-2.30;99.90;;;;;;4926075;28;20403;-87
2022/03/14 05:20:36;;;;;;;7.78;4.13;;;-2.00;99.90;;;;;;4944212;29;20408;-88
2022/03/14 05:23:04;;;;;;;7.28;3.72;;;-2.00;99.90;;;;;;4952786;29;20434;-88
2022/03/14 05:25:31;;;;;;;7.70;4.27;;;-1.90;99.90;;;;;;4921348;29;20396;-88
2022/03/14 05:27:59;;;;;;;9.10;3.95;;;-1.90;99.90;;;;;;4952902;29;20408;-88
2022/03/14 05:30:27;;;;;;;8.48;4.13;;;-1.80;99.90;;;;;;4936866;29;20894;-88
2022/03/14 05:32:54;;;;;;;7.32;3.80;;;-1.80;99.90;;;;;;4936591;29;20428;-88
2022/03/14 05:35:22;;;;;;;8.07;4.20;;;-1.80;99.90;;;;;;4920995;29;20416;-88
2022/03/14 05:37:49;;;;;;;7.57;4.15;;;-1.70;99.90;;;;;;4936589;29;20408;-88
2022/03/14 05:40:20;;;;;;;8.48;4.43;;;-1.60;99.90;;;;;;4952440;29;20411;-88
2022/03/14 05:42:50;;;;;;;8.57;4.22;;;-1.50;99.90;;;;;;4937281;29;20427;-88
2022/03/14 05:45:19;;;;;;;10.80;5.07;;;-1.40;99.90;;;;;;4936503;29;20404;-88
2022/03/14 05:47:47;;;;;;;8.57;4.63;;;-1.40;99.90;;;;;;4953756;29;20487;-88
2022/03/14 05:50:16;;;;;;;8.23;4.30;;;-1.30;99.90;;;;;;4924302;28;20397;-88
2022/03/14 05:52:44;;;;;;;9.15;4.70;;;-1.20;99.90;;;;;;4970964;28;20406;-88
2022/03/14 05:55:12;;;;;;;10.60;5.15;;;-1.10;99.90;;;;;;4920816;29;20486;-87
2022/03/14 05:57:40;;;;;;;10.57;5.78;;;-1.10;99.90;;;;;;4952552;29;20782;-89
2022/03/14 06:00:08;;;;;;;9.15;4.57;;;-1.10;99.90;;;;;;4937207;29;20895;-89
2022/03/14 06:02:49;;;;;;;9.52;5.00;;;-1.00;99.90;;;;;;4952730;29;20392;-89
2022/03/14 06:05:19;;;;;;;9.98;4.90;;;-0.90;99.90;;;;;;4936861;29;20401;-88
2022/03/14 06:07:48;;;;;;;9.15;4.97;;;-0.90;99.90;;;;;;4936866;29;20408;-87
2022/03/14 06:10:15;;;;;;;10.50;5.22;;;-0.90;99.90;;;;;;4973294;28;20430;-88
2022/03/14 06:12:44;;;;;;;9.10;4.53;;;-0.90;99.90;;;;;;4958988;28;20417;-88
2022/03/14 06:15:14;;;;;;;8.60;4.15;;;-0.90;99.90;;;;;;4921022;29;20747;-88
2022/03/14 06:17:42;;;;;;;9.80;4.68;;;-0.80;99.90;;;;;;4920420;29;20417;-86
2022/03/14 06:20:12;;;;;;;7.70;4.38;;;-0.70;99.90;;;;;;4939928;29;20406;-88
2022/03/14 06:22:41;;;;;;;15.27;5.10;;;-0.50;99.90;;;;;;4920481;29;20402;-88
2022/03/14 06:25:09;;;;;;;9.40;4.55;;;-0.40;99.90;;;;;;4905064;29;20398;-90
2022/03/14 06:27:37;;;;;;;8.07;4.13;;;-0.40;99.90;;;;;;4931158;29;20955;-87
2022/03/14 06:30:06;;;;;;;7.72;3.75;;;-0.40;99.90;;;;;;4955120;29;20408;-87
2022/03/14 06:32:35;;;;;;;8.63;4.00;;;-0.30;99.90;;;;;;4936175;29;21004;-89
2022/03/14 06:35:05;;;;;;;8.88;4.05;;;-0.30;99.90;;;;;;4936104;29;20439;-88
2022/03/14 06:37:33;;;;;;;7.47;3.80;;;-0.30;99.90;;;;;;4935923;29;20497;-88
2022/03/14 06:40:02;;;;;;;8.17;3.33;;;-0.20;99.90;;;;;;4920244;29;20405;-88
2022/03/14 06:42:30;;;;;;;7.95;3.55;;;-0.10;99.90;;;;;;4936081;29;20400;-89
2022/03/14 06:45:03;;;;;;;7.13;3.30;;;0.00;99.90;;;;;;4936380;29;20438;-89
2022/03/14 06:47:32;;;;;;;7.13;3.53;;;0.00;99.90;;;;;;4935897;29;20414;-88
2022/03/14 06:50:00;;;;;;;6.50;3.22;;;0.00;99.90;;;;;;4936186;29;20410;-88
2022/03/14 06:52:27;;;;;;;6.72;3.33;;;0.10;99.90;;;;;;4936205;29;20450;-89
2022/03/14 06:54:54;;;;;;;5.18;2.80;;;0.30;99.90;;;;;;4936128;29;20976;-87
2022/03/14 06:57:22;;;;;;;7.85;2.92;;;0.40;99.90;;;;;;4933239;29;20471;-88
2022/03/14 06:59:50;;;;;;;7.03;3.00;;;0.40;99.90;;;;;;4901686;29;20411;-88
2022/03/14 07:02:17;;;;;;;4.72;2.60;;;0.40;99.90;;;;;;4916949;29;20441;-90
2022/03/14 07:04:45;;;;;;;6.75;3.03;;;0.60;99.90;;;;;;4917254;29;20511;-87
2022/03/14 07:07:12;;;;;;;5.60;2.80;;;0.60;99.90;;;;;;4916960;29;20415;-90
2022/03/14 07:09:40;;;;;;;4.78;2.45;;;0.60;99.90;;;;;;4901225;29;20419;-90
2022/03/14 07:12:12;;;;;;;6.20;2.80;;;0.70;99.90;;;;;;4916970;29;20438;-89
2022/03/14 07:14:40;;;;;;;5.88;2.70;;;0.70;99.90;;;;;;4916952;29;20424;-89
2022/03/14 07:17:08;;;;;;;5.87;2.77;;;0.70;99.90;;;;;;4916874;29;20812;-90
2022/03/14 07:19:35;;;;;;;7.57;3.10;;;0.90;99.90;;;;;;4932106;29;20499;-86
2022/03/14 07:22:03;;;;;;;7.10;3.00;;;0.90;99.90;;;;;;4932774;29;20415;-88
2022/03/14 07:24:32;;;;;;;6.45;2.80;;;0.90;99.90;;;;;;4901223;29;20407;-90
2022/03/14 07:26:59;;;;;;;5.80;2.87;;;1.00;99.90;;;;;;4932580;29;20775;-89
2022/03/14 07:29:27;;;;;;;6.18;3.00;;;1.10;99.90;;;;;;4916292;29;20811;-89
2022/03/14 07:31:54;;;;;;;5.65;2.72;;;1.20;99.90;;;;;;4924754;29;20886;-90
2022/03/14 07:34:22;;;;;;;6.72;2.95;;;1.30;99.90;;;;;;4938284;29;20413;-89
2022/03/14 07:36:50;;;;;;;5.88;2.80;;;1.30;99.90;;;;;;4935255;29;20445;-88
2022/03/14 07:39:17;;;;;;;5.75;2.95;;;1.30;99.90;;;;;;4951418;29;20402;-90
2022/03/14 07:41:46;;;;;;;6.53;3.58;;;1.50;99.90;;;;;;4950929;29;20394;-86
2022/03/14 07:44:13;;;;;;;5.87;2.80;;;1.60;99.90;;;;;;4951101;29;20406;-87
2022/03/14 07:46:41;;;;;;;5.70;3.08;;;1.80;99.90;;;;;;4951370;29;20768;-89
2022/03/14 07:49:09;;;;;;;5.63;3.00;;;1.80;99.90;;;;;;4951038;29;20441;-88
2022/03/14 07:51:36;;;;;;;6.30;2.90;;;1.80;99.90;;;;;;4951305;29;20406;-92
2022/03/14 07:54:04;;;;;;;5.35;3.00;;;1.80;99.90;;;;;;4942364;29;20423;-89
2022/03/14 07:56:32;;;;;;;6.75;3.00;;;2.00;99.90;;;;;;4934318;29;20501;-87
2022/03/14 07:58:59;;;;;;;5.43;2.80;;;1.90;99.90;;;;;;4947244;29;20399;-86
2022/03/14 08:01:27;;;;;;;7.05;3.20;;;1.80;99.90;;;;;;4900248;29;21027;-90
2022/03/14 08:03:54;;;;;;;7.85;2.95;;;1.90;99.90;;;;;;4915578;29;20463;-86
2022/03/14 08:06:23;;;;;;;6.00;2.90;;;2.10;99.90;;;;;;4916820;29;20494;-87
2022/03/14 08:08:53;;;;;;;4.05;2.38;;;2.10;99.90;;;;;;4933668;29;20800;-85
2022/03/14 08:11:23;;;;;;;6.93;2.90;;;2.20;99.90;;;;;;4946756;29;20443;-87
2022/03/14 08:13:51;;;;;;;5.97;2.65;;;2.30;99.90;;;;;;4931460;29;20771;-88
2022/03/14 08:16:18;;;;;;;5.70;2.70;;;2.40;99.90;;;;;;4930910;29;20825;-88
2022/03/14 08:18:46;;;;;;;6.57;2.85;;;2.60;99.90;;;;;;4915388;29;20412;-87
2022/03/14 08:21:14;;;;;;;7.63;2.80;;;2.70;99.90;;;;;;4915364;29;20423;-87
2022/03/14 08:23:41;;;;;;;4.93;2.60;;;2.70;99.90;;;;;;4931027;29;20403;-86
2022/03/14 08:26:12;;;;;;;5.22;2.30;;;2.80;99.90;;;;;;4915241;29;20415;-86
2022/03/14 08:28:41;;;;;;;5.68;2.60;;;2.90;99.90;;;;;;4930786;29;20458;-86
2022/03/14 08:31:09;;;;;;;5.40;2.38;;;3.10;99.90;;;;;;4934067;29;20485;-88
2022/03/14 08:33:40;;;;;;;4.87;2.60;;;2.90;99.90;;;;;;4933409;29;20406;-88
2022/03/14 08:36:08;;;;;;;4.85;2.47;;;3.00;99.90;;;;;;4949628;29;20406;-88
2022/03/14 08:38:37;;;;;;;4.97;2.53;;;2.90;99.90;;;;;;4934087;29;20410;-88
2022/03/14 08:41:04;;;;;;;4.00;2.17;;;3.10;99.90;;;;;;4934107;29;20414;-89
2022/03/14 08:43:32;;;;;;;4.57;2.17;;;3.10;99.90;;;;;;4934393;29;20406;-89
2022/03/14 08:45:59;;;;;;;5.95;2.38;;;3.20;99.90;;;;;;4934188;29;20508;-86
2022/03/14 08:48:27;;;;;;;5.22;2.33;;;3.40;99.90;;;;;;4918214;29;20477;-89
2022/03/14 08:50:54;;;;;;;4.03;1.80;;;3.50;99.90;;;;;;4948398;29;20507;-89
2022/03/14 08:53:22;;;;;;;3.87;2.00;;;3.50;99.90;;;;;;4928165;29;20697;-89
2022/03/14 08:55:49;;;;;;;4.47;2.20;;;3.40;99.90;;;;;;4932369;29;20400;-89
2022/03/14 08:58:17;;;;;;;3.58;1.90;;;3.40;99.90;;;;;;4934001;28;20448;-89
2022/03/14 09:00:45;;;;;;;4.40;2.00;;;3.60;99.70;;;;;;4932977;29;20415;-89
2022/03/14 09:03:12;;;;;;;4.20;2.00;;;3.60;99.90;;;;;;4933097;29;20406;-89
2022/03/14 09:05:40;;;;;;;3.50;1.70;;;3.60;99.90;;;;;;4954121;28;20415;-88
2022/03/14 09:08:07;;;;;;;3.97;2.00;;;3.70;99.90;;;;;;4918403;29;20398;-87
2022/03/14 09:10:37;;;;;;;4.65;1.90;;;3.90;99.80;;;;;;4917997;29;20434;-88
2022/03/14 09:13:04;;;;;;;3.97;2.00;;;4.00;99.90;;;;;;4917930;29;20410;-88
2022/03/14 09:15:33;;;;;;;3.33;1.58;;;3.90;99.90;;;;;;4918655;29;20497;-88
2022/03/14 09:18:03;;;;;;;4.15;1.70;;;3.80;99.90;;;;;;4917894;29;20485;-89
2022/03/14 09:20:32;;;;;;;3.13;1.60;;;3.90;99.90;;;;;;4917242;29;20509;-89
2022/03/14 09:22:59;;;;;;;3.22;1.60;;;3.90;99.90;;;;;;4917223;29;20398;-88
2022/03/14 09:25:27;;;;;;;3.97;1.60;;;4.10;98.90;;;;;;4901222;29;20408;-88
2022/03/14 09:27:54;;;;;;;3.80;1.33;;;4.20;99.90;;;;;;4917873;29;20395;-88
2022/03/14 09:30:24;;;;;;;3.72;1.52;;;4.20;98.80;;;;;;4917552;29;20449;-89
2022/03/14 09:32:53;;;;;;;3.28;1.55;;;4.40;97.40;;;;;;4933343;29;20405;-88
2022/03/14 09:35:23;;;;;;;2.72;1.45;;;4.50;98.00;;;;;;4917755;29;20400;-88
2022/03/14 09:37:51;;;;;;;3.50;1.70;;;4.40;98.00;;;;;;4918166;29;20422;-88
2022/03/14 09:40:21;;;;;;;3.30;1.40;;;4.60;95.50;;;;;;4948117;29;20413;-88
2022/03/14 09:42:53;;;;;;;2.75;1.20;;;4.70;98.00;;;;;;4942057;29;20469;-88
2022/03/14 09:45:22;;;;;;;4.00;1.55;;;4.60;98.00;;;;;;4936220;29;20896;-88
2022/03/14 09:47:52;;;;;;;2.97;1.40;;;4.60;95.70;;;;;;4937432;29;20909;-89
2022/03/14 09:50:34;;;;;;;2.55;1.40;;;4.70;97.20;;;;;;4953006;29;20438;-89
2022/03/14 09:53:10;;;;;;;2.00;1.10;;;4.70;95.60;;;;;;4957135;29;20402;-86
2022/03/14 09:55:42;;;;;;;2.30;1.20;;;4.70;94.60;;;;;;4940293;29;20416;-87
2022/03/14 09:58:13;;;;;;;1.83;1.10;;;4.90;96.10;;;;;;4937391;29;20410;-89
2022/03/14 10:00:42;;;;;;;2.15;1.10;;;4.80;93.80;;;;;;4925450;28;20463;-89
2022/03/14 10:03:15;;;;;;;2.45;1.30;;;5.20;91.10;;;;;;4970053;28;20461;-89
2022/03/14 10:05:44;;;;;;;2.10;1.15;;;5.10;94.20;;;;;;4940220;29;20404;-91
2022/03/14 10:08:12;;;;;;;2.45;1.20;;;5.20;94.80;;;;;;4956300;29;20926;-88
2022/03/14 10:10:41;;;;;;;2.65;1.15;;;5.00;94.00;;;;;;4940111;29;20428;-89
2022/03/14 10:13:28;;;;;;;3.20;1.23;;;5.10;93.40;;;;;;4943030;29;20502;-90
2022/03/14 10:15:56;;;;;;;2.65;1.30;;;5.30;93.90;;;;;;4940106;29;20412;-89
2022/03/14 10:18:24;;;;;;;1.40;0.85;;;5.20;94.40;;;;;;4940212;29;20440;-90
2022/03/14 10:20:57;;;;;;;2.92;1.25;;;5.30;92.20;;;;;;4940043;29;20896;-89
2022/03/14 10:23:30;;;;;;;2.13;1.10;;;5.50;91.40;;;;;;4940136;29;20444;-89
2022/03/14 10:25:58;;;;;;;3.17;1.13;;;5.50;94.20;;;;;;4955970;29;20484;-90
2022/03/14 10:28:33;;;;;;;2.05;1.05;;;5.50;91.90;;;;;;4939974;29;20405;-91
2022/03/14 10:31:29;;;;;;;2.20;0.93;;;5.60;92.10;;;;;;4939613;29;20515;-91
2022/03/14 10:34:04;;;;;;;2.10;1.00;;;5.70;92.00;;;;;;4935958;29;20487;-89
2022/03/14 10:36:58;;;;;;;2.97;1.00;;;5.50;91.00;;;;;;4948833;28;20499;-90
2022/03/14 10:39:27;;;;;;;2.53;0.85;;;5.50;91.20;;;;;;4946306;28;20926;-90
2022/03/14 10:42:07;;;;;;;2.00;1.00;;;5.60;91.20;;;;;;4913289;29;20402;-91
2022/03/14 10:44:51;;;;;;;2.10;0.82;;;5.90;91.00;;;;;;4947154;29;20406;-91
2022/03/14 10:47:20;;;;;;;1.48;0.80;;;5.80;90.60;;;;;;4944853;28;20419;-90
2022/03/14 10:49:49;;;;;;;2.03;0.80;;;6.10;88.10;;;;;;4949049;28;20441;-89
2022/03/14 10:52:18;;;;;;;1.38;0.80;;;6.10;84.80;;;;;;4947259;29;20412;-91
2022/03/14 10:54:46;;;;;;;1.23;0.70;;;6.40;81.20;;;;;;4934763;29;20501;-90
2022/03/14 10:57:24;;;;;;;2.15;0.80;;;6.50;82.10;;;;;;4940323;29;20477;-89
2022/03/14 10:59:53;;;;;;;1.10;0.70;;;6.50;86.10;;;;;;4945137;28;20415;-89
2022/03/14 11:02:23;;;;;;;1.30;0.80;;;6.80;77.90;;;;;;4953604;28;20405;-89
2022/03/14 11:04:59;;;;;;;1.30;0.70;;;6.80;83.90;;;;;;4932849;29;20412;-88
2022/03/14 11:07:31;;;;;;;1.13;0.68;;;6.80;83.30;;;;;;4927909;29;20402;-91
2022/03/14 11:10:01;;;;;;;1.25;0.60;;;6.80;77.40;;;;;;4952020;29;20485;-89
2022/03/14 11:12:30;;;;;;;1.67;0.65;;;6.70;80.80;;;;;;4936318;29;20461;-90
2022/03/14 11:15:00;;;;;;;0.90;0.50;;;6.80;75.30;;;;;;4948284;28;20922;-90
2022/03/14 11:17:30;;;;;;;0.95;0.52;;;7.00;71.40;;;;;;4932618;29;20445;-89
2022/03/14 11:20:15;;;;;;;1.08;0.60;;;7.10;71.10;;;;;;4949146;29;20467;-90
2022/03/14 11:22:44;;;;;;;1.00;0.50;;;7.10;77.00;;;;;;4961244;28;20496;-90
2022/03/14 11:25:11;;;;;;;0.88;0.55;;;6.80;75.90;;;;;;4947272;29;20507;-91
2022/03/14 11:27:42;;;;;;;1.13;0.50;;;7.00;73.50;;;;;;4916702;29;20945;-90
2022/03/14 11:30:11;;;;;;;1.00;0.50;;;7.30;73.50;;;;;;4916821;29;20415;-89
2022/03/14 11:32:41;;;;;;;0.70;0.40;;;7.30;72.40;;;;;;4940519;29;20920;-90
2022/03/14 11:35:09;;;;;;;0.60;0.40;;;7.20;73.90;;;;;;4935897;29;20465;-88
2022/03/14 11:37:37;;;;;;;1.67;0.60;;;7.40;71.00;;;;;;4935430;29;20421;-89
2022/03/14 11:40:07;;;;;;;0.70;0.50;;;7.30;75.30;;;;;;4935508;29;20406;-90
2022/03/14 11:42:34;;;;;;;1.30;0.63;;;7.30;75.10;;;;;;4935795;29;20410;-89
2022/03/14 11:45:07;;;;;;;1.00;0.52;;;7.50;70.20;;;;;;4951551;29;20457;-90
2022/03/14 11:47:36;;;;;;;1.73;0.70;;;7.70;66.20;;;;;;4935466;29;20894;-89
2022/03/14 11:50:04;;;;;;;1.23;0.70;;;7.90;71.40;;;;;;4951695;29;20468;-91
2022/03/14 11:52:41;;;;;;;1.80;0.70;;;7.60;74.40;;;;;;4933607;29;20409;-90
2022/03/14 11:55:20;;;;;;;1.58;0.68;;;7.90;73.80;;;;;;4919337;29;20459;-91
2022/03/14 11:57:48;;;;;;;1.13;0.70;;;7.90;71.70;;;;;;4953075;29;20416;-90
2022/03/14 12:00:24;;;;;;;1.13;0.70;;;8.10;74.40;;;;;;4934910;29;20402;-89
2022/03/14 12:02:57;;;;;;;1.20;0.90;;;8.30;78.10;;;;;;4919108;29;20803;-91
2022/03/14 12:05:31;;;;;;;0.82;0.63;;;8.30;67.90;;;;;;4919034;29;20402;-90
2022/03/14 12:08:10;;;;;;;1.23;0.68;;;8.30;73.10;;;;;;4919974;29;20456;-90
2022/03/14 12:10:38;;;;;;;1.27;0.70;;;8.20;71.30;;;;;;4938273;29;20401;-90
2022/03/14 12:13:06;;;;;;;0.57;0.40;;;8.10;73.50;;;;;;4938156;28;20895;-90
2022/03/14 12:15:41;;;;;;;0.90;0.52;;;8.40;69.80;;;;;;4969259;28;20846;-90
2022/03/14 12:18:43;;;;;;;0.63;0.50;;;8.60;66.30;;;;;;4938142;29;20409;-91
2022/03/14 12:21:45;;;;;;;0.60;0.40;;;8.80;71.40;;;;;;4918000;29;20451;-91
2022/03/14 12:24:19;;;;;;;1.10;0.47;;;8.60;67.80;;;;;;4953899;29;20450;-90
2022/03/14 12:26:48;;;;;;;0.70;0.40;;;8.80;67.50;;;;;;4937716;29;20408;-91
2022/03/14 12:29:36;;;;;;;0.57;0.50;;;8.90;66.60;;;;;;4938144;29;20495;-91
2022/03/14 12:32:31;;;;;;;0.82;0.50;;;8.90;64.00;;;;;;4953762;29;20430;-91
2022/03/14 12:35:10;;;;;;;1.40;0.70;;;8.90;63.40;;;;;;4927512;29;20810;-90
2022/03/14 12:37:53;;;;;;;1.50;0.50;;;9.00;63.10;;;;;;4937460;29;20408;-90
2022/03/14 12:40:23;;;;;;;1.15;0.50;;;9.20;59.80;;;;;;4953485;29;20497;-92
2022/03/14 12:42:52;;;;;;;0.70;0.47;;;9.20;71.10;;;;;;4937631;29;20819;-91
2022/03/14 12:45:40;;;;;;;0.77;0.40;;;9.20;64.70;;;;;;4936602;29;20416;-92
2022/03/14 12:48:28;;;;;;;1.13;0.45;;;9.30;60.60;;;;;;4933099;29;20416;-90
2022/03/14 12:51:08;;;;;;;0.52;0.47;;;9.50;58.00;;;;;;4934624;29;20474;-90
2022/03/14 12:53:39;;;;;;;0.97;0.50;;;9.80;59.00;;;;;;4918489;29;20739;-90
2022/03/14 12:56:15;;;;;;;1.10;0.50;;;9.50;62.40;;;;;;4933974;29;20409;-91
2022/03/14 12:59:23;;;;;;;1.00;0.60;;;9.30;63.50;;;;;;4928481;29;20455;-90
2022/03/14 13:01:52;;;;;;;1.15;0.50;;;9.00;63.60;;;;;;4922690;29;20405;-90